Time;durP1;ratioP1;P1;durP2;ratioP2;P2;SDS_P1;SDS_P2;PMS_P1;PMS_P2;Temp;Humidity;BMP_temperature;BMP_pressure;BME280_temperature;BME280_humidity;BME280_pressure;Samples;Min_cycle;Max_cycle;Signal;HPM_P1;HPM_P2
2023/06/28 00:00:05;;;;;;;5.90;3.60;;;14.20;99.90;;;;;;5091734;28;20194;-67
2023/06/28 00:02:35;;;;;;;5.23;3.60;;;14.30;99.90;;;;;;5094552;28;20285;-66
2023/06/28 00:05:08;;;;;;;7.87;2.50;;;14.40;99.90;;;;;;5085606;28;20424;-67
2023/06/28 00:07:34;;;;;;;3.67;2.70;;;14.30;99.90;;;;;;5093968;28;20400;-68
2023/06/28 00:10:00;;;;;;;7.33;3.40;;;14.30;99.90;;;;;;5084001;28;20800;-70
2023/06/28 00:12:28;;;;;;;5.00;2.87;;;14.20;99.90;;;;;;5091849;28;20234;-68
2023/06/28 00:14:54;;;;;;;5.13;2.80;;;14.20;99.90;;;;;;5091531;28;20174;-66
2023/06/28 00:17:27;;;;;;;5.30;2.90;;;14.20;99.90;;;;;;5089090;28;20778;-68
2023/06/28 00:19:57;;;;;;;3.80;2.50;;;14.20;99.90;;;;;;5094101;28;20470;-68
2023/06/28 00:22:29;;;;;;;5.20;2.83;;;14.20;99.90;;;;;;5090485;28;20530;-66
2023/06/28 00:24:59;;;;;;;8.30;3.70;;;14.10;99.90;;;;;;5092786;28;20419;-68
2023/06/28 00:27:28;;;;;;;6.53;3.27;;;14.20;99.90;;;;;;5089176;28;20903;-68
2023/06/28 00:29:55;;;;;;;8.20;3.20;;;14.20;99.90;;;;;;5091822;28;20485;-67
2023/06/28 00:32:21;;;;;;;7.77;3.20;;;14.10;99.90;;;;;;5088192;28;20955;-67
2023/06/28 00:34:47;;;;;;;6.13;3.03;;;14.10;99.90;;;;;;5090779;28;20450;-68
2023/06/28 00:37:13;;;;;;;8.63;2.83;;;14.10;99.90;;;;;;5093152;28;20466;-68
2023/06/28 00:39:38;;;;;;;5.17;3.00;;;14.10;99.90;;;;;;5089450;28;20189;-67
2023/06/28 00:42:04;;;;;;;5.73;3.77;;;14.00;99.90;;;;;;5092090;28;20681;-67
2023/06/28 00:44:30;;;;;;;7.30;3.10;;;14.00;99.90;;;;;;5088573;28;20268;-67
2023/06/28 00:46:57;;;;;;;6.23;3.53;;;14.00;99.90;;;;;;5091294;28;20447;-67
2023/06/28 00:49:25;;;;;;;4.27;3.50;;;14.00;99.90;;;;;;5093277;28;20256;-67
2023/06/28 00:51:51;;;;;;;7.37;3.60;;;14.00;99.90;;;;;;5090292;28;21031;-66
2023/06/28 00:54:18;;;;;;;5.30;3.13;;;14.00;99.90;;;;;;5092956;28;20797;-66
2023/06/28 00:56:45;;;;;;;5.43;3.30;;;13.90;99.90;;;;;;5071163;28;20176;-68
2023/06/28 00:59:11;;;;;;;3.30;2.80;;;13.80;99.90;;;;;;5086831;28;20492;-68
2023/06/28 01:01:37;;;;;;;4.70;3.47;;;13.90;99.90;;;;;;5090134;28;20415;-68
2023/06/28 01:04:05;;;;;;;6.00;3.20;;;13.90;99.90;;;;;;5089879;28;20896;-69
2023/06/28 01:06:35;;;;;;;6.63;2.97;;;13.90;99.90;;;;;;5091965;28;20411;-67
2023/06/28 01:09:07;;;;;;;5.50;3.27;;;13.90;99.90;;;;;;5085226;28;20403;-67
2023/06/28 01:11:34;;;;;;;8.63;3.77;;;13.90;99.90;;;;;;5091244;28;20431;-68
2023/06/28 01:14:01;;;;;;;3.90;3.13;;;13.90;99.90;;;;;;5084500;28;20457;-68
2023/06/28 01:16:27;;;;;;;8.63;4.03;;;13.90;99.90;;;;;;5090216;28;20417;-67
2023/06/28 01:18:53;;;;;;;3.40;2.87;;;13.90;99.90;;;;;;5092651;28;20403;-67
2023/06/28 01:21:20;;;;;;;6.20;3.40;;;13.90;99.90;;;;;;5089114;28;20764;-68
2023/06/28 01:23:46;;;;;;;5.37;3.40;;;13.80;99.90;;;;;;5091918;28;20561;-66
2023/06/28 01:26:11;;;;;;;6.00;2.70;;;13.90;99.90;;;;;;5088455;28;20898;-67
2023/06/28 01:28:38;;;;;;;7.63;3.50;;;13.90;99.90;;;;;;5090566;28;20404;-67
2023/06/28 01:31:05;;;;;;;4.90;3.27;;;13.90;99.90;;;;;;5087570;28;20624;-66
2023/06/28 01:33:30;;;;;;;6.53;2.97;;;13.90;99.90;;;;;;5089976;28;20416;-68
2023/06/28 01:35:57;;;;;;;8.47;4.33;;;13.90;99.90;;;;;;5068061;28;20489;-67
2023/06/28 01:38:24;;;;;;;4.87;3.03;;;13.90;99.90;;;;;;5089031;28;20170;-67
2023/06/28 01:40:51;;;;;;;7.83;3.20;;;13.90;99.90;;;;;;5091189;28;20434;-67
2023/06/28 01:43:17;;;;;;;4.50;3.43;;;13.80;99.90;;;;;;5063480;28;20477;-67
2023/06/28 01:45:43;;;;;;;6.90;3.20;;;13.80;99.90;;;;;;5089906;28;20436;-69
2023/06/28 01:48:09;;;;;;;4.50;3.20;;;13.70;99.90;;;;;;5086843;28;20396;-67
2023/06/28 01:50:35;;;;;;;5.13;2.47;;;13.70;99.90;;;;;;5087871;28;20209;-70
2023/06/28 01:53:03;;;;;;;3.53;3.23;;;13.70;99.90;;;;;;5091873;28;20177;-66
2023/06/28 01:55:29;;;;;;;5.33;3.30;;;13.60;99.90;;;;;;5088419;28;20177;-66
2023/06/28 01:57:55;;;;;;;4.77;3.13;;;13.70;99.90;;;;;;5090561;28;20506;-67
2023/06/28 02:00:21;;;;;;;5.07;2.83;;;13.70;99.90;;;;;;5091999;28;20665;-69
2023/06/28 02:02:46;;;;;;;3.20;2.90;;;13.70;99.90;;;;;;5090047;28;20455;-66
2023/06/28 02:05:12;;;;;;;9.60;4.63;;;13.70;99.90;;;;;;5089573;28;20175;-68
2023/06/28 02:07:38;;;;;;;11.40;3.60;;;13.60;99.90;;;;;;5091515;28;20162;-68
2023/06/28 02:10:04;;;;;;;7.77;3.07;;;13.60;99.90;;;;;;5086792;28;20201;-66
2023/06/28 02:12:30;;;;;;;5.23;3.07;;;13.60;99.90;;;;;;5091883;28;20287;-68
2023/06/28 02:14:55;;;;;;;10.00;3.23;;;13.60;99.90;;;;;;5091644;28;20903;-67
2023/06/28 02:17:21;;;;;;;6.50;4.10;;;13.50;99.90;;;;;;5085949;28;20362;-67
2023/06/28 02:19:48;;;;;;;6.40;3.30;;;13.60;99.90;;;;;;5090316;28;20323;-67
2023/06/28 02:22:14;;;;;;;10.57;3.43;;;13.60;99.90;;;;;;5096305;28;20521;-69
2023/06/28 02:24:40;;;;;;;10.20;3.57;;;13.70;99.90;;;;;;5104113;28;20412;-68
2023/06/28 02:27:08;;;;;;;5.50;3.30;;;13.70;99.90;;;;;;5092005;28;20408;-68
2023/06/28 02:29:34;;;;;;;5.87;4.27;;;13.70;99.90;;;;;;5091778;28;20675;-67
2023/06/28 02:31:59;;;;;;;11.10;3.90;;;13.70;99.90;;;;;;5086087;28;20603;-68
2023/06/28 02:34:25;;;;;;;7.47;3.70;;;13.70;99.90;;;;;;5091763;28;20594;-67
2023/06/28 02:36:51;;;;;;;13.80;3.43;;;13.80;99.90;;;;;;5084346;28;20415;-68
2023/06/28 02:39:17;;;;;;;8.13;3.30;;;13.80;99.90;;;;;;5091921;28;20215;-67
2023/06/28 02:41:42;;;;;;;3.33;3.13;;;13.80;99.90;;;;;;5085533;28;20416;-68
2023/06/28 02:44:08;;;;;;;8.50;3.40;;;13.90;99.90;;;;;;5092495;28;20741;-67
2023/06/28 02:46:33;;;;;;;4.37;3.30;;;13.90;99.90;;;;;;5096008;28;20181;-66
2023/06/28 02:48:59;;;;;;;6.27;3.60;;;14.00;99.90;;;;;;5085550;28;20182;-68
2023/06/28 02:51:25;;;;;;;8.40;3.00;;;13.90;99.90;;;;;;5092027;28;20580;-68
2023/06/28 02:53:50;;;;;;;5.07;3.40;;;13.90;99.90;;;;;;5087280;28;20187;-66
2023/06/28 02:56:16;;;;;;;4.70;2.90;;;13.90;99.90;;;;;;5095786;28;20355;-67
2023/06/28 02:58:42;;;;;;;5.20;2.80;;;13.90;99.90;;;;;;5094953;28;20321;-68
2023/06/28 03:01:09;;;;;;;8.80;3.30;;;13.90;99.90;;;;;;5091657;28;20680;-68
2023/06/28 03:03:38;;;;;;;6.60;2.97;;;13.90;99.90;;;;;;5095573;28;20452;-69
2023/06/28 03:06:05;;;;;;;3.77;3.40;;;14.00;99.90;;;;;;5088887;28;20481;-68
2023/06/28 03:08:30;;;;;;;3.73;3.03;;;14.00;99.90;;;;;;5095384;28;20408;-68
2023/06/28 03:10:56;;;;;;;10.63;3.57;;;14.00;99.90;;;;;;5086747;28;20788;-69
2023/06/28 03:13:21;;;;;;;6.17;3.43;;;14.00;99.90;;;;;;5089634;28;20238;-67
2023/06/28 03:15:47;;;;;;;5.73;2.90;;;14.10;99.90;;;;;;5093985;28;20254;-67
2023/06/28 03:18:13;;;;;;;6.50;3.20;;;14.00;99.90;;;;;;5094722;28;20170;-67
2023/06/28 03:20:38;;;;;;;3.27;2.97;;;14.10;99.90;;;;;;5094443;28;20200;-67
2023/06/28 03:23:04;;;;;;;4.57;3.20;;;14.00;99.90;;;;;;5086647;28;20230;-68
2023/06/28 03:25:30;;;;;;;9.90;3.00;;;14.10;99.90;;;;;;5094215;28;20243;-67
2023/06/28 03:27:56;;;;;;;5.03;3.27;;;14.10;99.90;;;;;;5092035;28;20262;-68
2023/06/28 03:30:22;;;;;;;7.20;3.20;;;14.10;99.90;;;;;;5092249;28;20427;-69
2023/06/28 03:32:48;;;;;;;6.70;2.80;;;14.10;99.90;;;;;;5093235;28;20499;-67
2023/06/28 03:35:14;;;;;;;4.40;2.67;;;14.10;99.90;;;;;;5089134;28;20222;-67
2023/06/28 03:37:47;;;;;;;6.67;3.03;;;14.10;99.90;;;;;;5093972;28;20199;-68
2023/06/28 03:40:14;;;;;;;3.33;2.90;;;14.10;99.90;;;;;;5087221;28;20439;-68
2023/06/28 03:42:40;;;;;;;3.93;3.00;;;14.20;99.90;;;;;;5093831;28;20542;-67
2023/06/28 03:45:06;;;;;;;7.43;3.23;;;14.20;99.90;;;;;;5090498;28;20550;-68
2023/06/28 03:47:32;;;;;;;3.30;3.00;;;14.20;99.90;;;;;;5093016;28;20193;-67
2023/06/28 03:49:57;;;;;;;6.37;2.47;;;14.20;99.90;;;;;;5073155;28;20432;-67
2023/06/28 03:52:23;;;;;;;4.90;3.13;;;14.20;99.90;;;;;;5090035;28;20674;-68
2023/06/28 03:54:48;;;;;;;4.17;2.87;;;14.20;99.90;;;;;;5094487;28;20174;-67
2023/06/28 03:57:14;;;;;;;6.00;2.73;;;14.20;99.90;;;;;;5091840;28;20754;-67
2023/06/28 03:59:39;;;;;;;5.03;3.10;;;14.20;99.90;;;;;;5085947;28;20217;-69
2023/06/28 04:02:05;;;;;;;9.53;2.77;;;14.30;99.90;;;;;;5090329;28;20542;-69
2023/06/28 04:04:31;;;;;;;4.03;3.23;;;14.20;99.90;;;;;;5092556;28;20254;-69
2023/06/28 04:06:57;;;;;;;6.87;5.07;;;14.20;99.90;;;;;;5090836;28;20531;-67
2023/06/28 04:09:22;;;;;;;5.20;3.20;;;14.20;99.90;;;;;;5089438;28;20412;-67
2023/06/28 04:11:48;;;;;;;4.97;2.40;;;14.20;99.90;;;;;;5094050;28;20176;-67
2023/06/28 04:14:14;;;;;;;5.20;2.60;;;14.20;99.90;;;;;;5090434;28;20700;-68
2023/06/28 04:16:39;;;;;;;10.53;5.40;;;14.20;99.90;;;;;;5093151;28;20173;-67
2023/06/28 04:19:05;;;;;;;4.37;3.20;;;14.30;99.90;;;;;;5094029;28;20170;-67
2023/06/28 04:21:31;;;;;;;6.63;2.67;;;14.30;99.90;;;;;;5087784;28;20212;-68
2023/06/28 04:23:56;;;;;;;4.70;2.93;;;14.30;99.90;;;;;;5084389;28;20466;-67
2023/06/28 04:26:22;;;;;;;12.33;3.33;;;14.30;99.90;;;;;;5093679;28;20332;-68
2023/06/28 04:28:47;;;;;;;3.37;2.50;;;14.40;99.90;;;;;;5085308;28;20662;-68
2023/06/28 04:31:14;;;;;;;3.60;2.47;;;14.40;99.90;;;;;;5091949;28;20193;-68
2023/06/28 04:33:39;;;;;;;3.63;2.33;;;14.40;99.90;;;;;;5088547;28;20798;-66
2023/06/28 04:36:05;;;;;;;3.53;2.67;;;14.50;99.90;;;;;;5090968;28;20512;-68
2023/06/28 04:38:32;;;;;;;2.90;2.70;;;14.60;99.90;;;;;;5087581;28;20181;-67
2023/06/28 04:40:58;;;;;;;11.10;3.10;;;14.60;99.90;;;;;;5090001;28;20711;-67
2023/06/28 04:43:24;;;;;;;9.63;3.03;;;14.60;99.90;;;;;;5092734;28;20455;-66
2023/06/28 04:45:49;;;;;;;5.30;2.60;;;14.70;99.90;;;;;;5089171;28;20921;-66
2023/06/28 04:48:15;;;;;;;9.30;3.40;;;14.70;99.90;;;;;;5073684;28;20174;-69
2023/06/28 04:50:41;;;;;;;3.03;2.20;;;14.80;99.90;;;;;;5087944;28;20576;-67
2023/06/28 04:53:07;;;;;;;5.50;3.07;;;14.90;99.90;;;;;;5090747;28;20194;-66
2023/06/28 04:55:34;;;;;;;3.97;2.60;;;14.90;99.90;;;;;;5093325;28;20306;-66
2023/06/28 04:58:04;;;;;;;8.13;3.57;;;14.90;99.90;;;;;;5084825;28;20416;-67
2023/06/28 05:00:30;;;;;;;3.70;2.40;;;14.90;99.90;;;;;;5092340;28;20837;-68
2023/06/28 05:02:57;;;;;;;7.67;3.37;;;15.00;99.90;;;;;;5088843;28;20466;-67
2023/06/28 05:05:26;;;;;;;3.40;2.73;;;15.00;99.90;;;;;;5091359;28;20793;-67
2023/06/28 05:07:53;;;;;;;7.60;2.23;;;15.10;99.90;;;;;;5084379;28;20406;-66
2023/06/28 05:10:19;;;;;;;5.00;2.87;;;15.20;99.90;;;;;;5092972;28;20460;-66
2023/06/28 05:12:45;;;;;;;10.67;3.03;;;15.20;99.90;;;;;;5086770;28;20463;-69
2023/06/28 05:15:12;;;;;;;3.07;2.60;;;15.20;99.90;;;;;;5089595;28;20407;-67
2023/06/28 05:17:37;;;;;;;5.27;2.70;;;15.30;99.90;;;;;;5091244;28;20641;-69
2023/06/28 05:20:04;;;;;;;3.23;2.50;;;15.50;99.90;;;;;;5092534;28;20591;-68
2023/06/28 05:22:30;;;;;;;5.10;3.00;;;15.50;99.90;;;;;;5068637;28;20211;-67
2023/06/28 05:24:55;;;;;;;6.50;3.47;;;15.60;99.90;;;;;;5088333;28;20489;-67
2023/06/28 05:27:21;;;;;;;4.20;3.80;;;15.80;99.90;;;;;;5092534;28;20468;-69
2023/06/28 05:29:46;;;;;;;8.73;3.20;;;15.70;99.90;;;;;;5086580;28;20539;-70
2023/06/28 05:32:13;;;;;;;6.60;3.00;;;15.90;99.90;;;;;;5092500;28;20181;-68
2023/06/28 05:34:39;;;;;;;6.20;2.83;;;16.00;99.90;;;;;;5086675;28;20168;-67
2023/06/28 05:37:05;;;;;;;4.33;2.03;;;15.90;99.90;;;;;;5090426;28;20410;-67
2023/06/28 05:39:31;;;;;;;6.57;2.63;;;15.80;99.90;;;;;;5086572;28;20441;-67
2023/06/28 05:41:57;;;;;;;11.50;2.90;;;15.80;99.90;;;;;;5088985;28;20955;-67
2023/06/28 05:44:22;;;;;;;5.67;2.77;;;15.80;99.90;;;;;;5092165;28;20172;-67
2023/06/28 05:46:48;;;;;;;4.03;2.53;;;16.00;99.90;;;;;;5086563;28;20249;-72
2023/06/28 05:49:14;;;;;;;2.90;2.30;;;16.20;99.90;;;;;;5092348;28;20468;-68
2023/06/28 05:51:40;;;;;;;4.57;2.33;;;16.90;99.90;;;;;;5109042;22;20239;-67
2023/06/28 05:54:05;;;;;;;3.60;1.90;;;17.30;99.90;;;;;;5094628;28;20186;-68
2023/06/28 05:56:31;;;;;;;5.40;2.30;;;17.30;99.90;;;;;;5090623;28;20415;-69
2023/06/28 05:58:57;;;;;;;3.60;2.30;;;17.60;99.90;;;;;;5090321;28;20171;-68
2023/06/28 06:01:23;;;;;;;5.00;2.40;;;17.80;99.90;;;;;;5087575;28;20188;-67
2023/06/28 06:03:50;;;;;;;5.90;2.67;;;17.80;99.90;;;;;;5090260;28;20955;-68
2023/06/28 06:06:17;;;;;;;3.53;2.23;;;17.90;99.90;;;;;;5090735;28;20459;-68
2023/06/28 06:08:43;;;;;;;2.73;2.13;;;18.10;99.90;;;;;;5090645;28;20418;-69
2023/06/28 06:11:09;;;;;;;4.10;1.87;;;18.10;99.90;;;;;;5085395;28;20419;-70
2023/06/28 06:13:35;;;;;;;2.47;2.07;;;17.90;99.90;;;;;;5086760;28;20423;-70
2023/06/28 06:16:00;;;;;;;4.27;2.20;;;17.90;99.90;;;;;;5086507;28;20427;-68
2023/06/28 06:18:26;;;;;;;4.03;2.30;;;17.80;99.90;;;;;;5079844;28;20252;-67
2023/06/28 06:20:52;;;;;;;4.60;2.30;;;17.50;99.90;;;;;;5090145;28;20222;-68
2023/06/28 06:23:18;;;;;;;5.70;2.40;;;18.10;99.90;;;;;;5088068;28;20589;-69
2023/06/28 06:25:44;;;;;;;4.70;2.03;;;18.30;99.90;;;;;;5089787;28;20191;-69
2023/06/28 06:28:10;;;;;;;5.07;2.87;;;18.80;99.90;;;;;;5090307;28;20416;-68
2023/06/28 06:30:35;;;;;;;4.10;2.13;;;19.00;99.90;;;;;;5090218;28;20444;-71
2023/06/28 06:33:01;;;;;;;3.97;2.10;;;19.40;99.90;;;;;;5090285;28;20185;-69
2023/06/28 06:35:27;;;;;;;4.17;1.83;;;19.40;99.90;;;;;;5090382;28;20239;-69
2023/06/28 06:37:53;;;;;;;2.90;2.00;;;19.50;99.90;;;;;;5070529;28;20631;-69
2023/06/28 06:40:19;;;;;;;2.23;2.03;;;19.60;99.90;;;;;;5090138;28;20437;-67
2023/06/28 06:42:45;;;;;;;3.60;1.70;;;19.70;99.90;;;;;;5090036;28;20800;-68
2023/06/28 06:45:16;;;;;;;4.30;1.87;;;20.00;99.90;;;;;;5089938;28;20332;-68
2023/06/28 06:47:44;;;;;;;7.77;2.10;;;20.00;99.90;;;;;;5089955;28;20415;-70
2023/06/28 06:50:09;;;;;;;2.53;1.70;;;20.00;99.90;;;;;;5089741;28;20440;-69
2023/06/28 06:52:38;;;;;;;1.73;1.50;;;20.10;99.90;;;;;;5089942;28;20414;-68
2023/06/28 06:55:04;;;;;;;3.57;1.60;;;20.40;99.90;;;;;;5081963;28;20184;-67
2023/06/28 06:57:30;;;;;;;4.30;1.60;;;20.80;99.90;;;;;;5089580;28;20419;-70
2023/06/28 06:59:56;;;;;;;5.10;2.13;;;20.00;99.90;;;;;;5084213;28;20422;-69
2023/06/28 07:02:21;;;;;;;4.27;2.20;;;19.90;99.90;;;;;;5084584;28;20198;-68
2023/06/28 07:04:48;;;;;;;5.90;1.70;;;19.70;99.90;;;;;;5087853;28;20175;-68
2023/06/28 07:07:14;;;;;;;2.07;1.43;;;20.20;99.90;;;;;;5086692;28;20177;-68
2023/06/28 07:09:39;;;;;;;5.27;2.20;;;20.70;99.90;;;;;;5082485;28;20423;-67
2023/06/28 07:12:05;;;;;;;4.27;1.53;;;21.40;99.90;;;;;;5077837;28;20513;-68
2023/06/28 07:14:31;;;;;;;2.33;1.60;;;22.10;99.90;;;;;;5090000;28;20662;-69
2023/06/28 07:16:56;;;;;;;2.67;1.60;;;22.50;99.90;;;;;;5089863;28;20498;-75
2023/06/28 07:19:22;;;;;;;5.53;2.30;;;23.60;99.90;;;;;;5076630;28;20218;-70
2023/06/28 07:21:48;;;;;;;3.90;2.00;;;23.50;99.90;;;;;;5079857;28;20193;-69
2023/06/28 07:24:13;;;;;;;3.40;1.97;;;23.10;99.90;;;;;;5087748;28;20197;-69
2023/06/28 07:26:39;;;;;;;3.63;1.63;;;22.40;99.90;;;;;;5090372;28;20185;-69
2023/06/28 07:29:05;;;;;;;2.40;1.33;;;22.30;99.90;;;;;;5087171;28;20178;-67
2023/06/28 07:31:30;;;;;;;6.23;1.93;;;22.30;99.90;;;;;;5081576;28;20297;-69
2023/06/28 07:33:57;;;;;;;1.77;1.50;;;23.20;99.90;;;;;;5069734;28;20175;-69
2023/06/28 07:36:23;;;;;;;2.93;1.60;;;23.30;99.90;;;;;;5089538;28;20499;-68
2023/06/28 07:38:50;;;;;;;4.63;1.50;;;23.40;99.90;;;;;;5089598;28;20422;-69
2023/06/28 07:41:16;;;;;;;6.00;3.00;;;22.80;99.90;;;;;;5090940;28;20230;-71
2023/06/28 07:43:42;;;;;;;2.03;1.70;;;22.70;99.90;;;;;;5093067;28;20516;-68
2023/06/28 07:46:07;;;;;;;3.37;1.97;;;21.90;99.90;;;;;;5094107;28;20415;-69
2023/06/28 07:48:33;;;;;;;4.20;1.73;;;21.90;99.90;;;;;;5093134;28;20358;-67
2023/06/28 07:50:58;;;;;;;1.90;1.33;;;21.90;99.90;;;;;;5087037;28;20275;-68
2023/06/28 07:53:24;;;;;;;1.80;1.27;;;21.50;99.90;;;;;;5093055;28;20181;-68
2023/06/28 07:55:50;;;;;;;3.13;1.80;;;21.70;99.90;;;;;;5092714;28;20200;-70
2023/06/28 07:58:15;;;;;;;2.03;1.63;;;22.80;99.90;;;;;;5092965;28;20652;-68
2023/06/28 08:00:41;;;;;;;3.50;1.97;;;22.10;99.90;;;;;;5092686;28;20201;-67
2023/06/28 08:03:06;;;;;;;2.90;1.60;;;22.30;99.90;;;;;;5093200;28;20217;-67
2023/06/28 08:05:32;;;;;;;4.80;1.80;;;21.90;99.90;;;;;;5092895;28;20192;-68
2023/06/28 08:07:58;;;;;;;7.13;1.60;;;21.80;99.90;;;;;;5092777;28;20192;-66
2023/06/28 08:10:25;;;;;;;4.03;1.80;;;21.70;99.90;;;;;;5087822;28;20245;-67
2023/06/28 08:12:52;;;;;;;3.83;1.83;;;22.20;99.90;;;;;;5072012;28;20182;-69
2023/06/28 08:15:18;;;;;;;3.80;1.77;;;22.80;99.90;;;;;;5092536;28;20415;-69
2023/06/28 08:17:44;;;;;;;2.60;1.77;;;23.80;99.90;;;;;;5092698;28;20859;-69
2023/06/28 08:20:10;;;;;;;5.80;1.80;;;22.70;99.90;;;;;;5092664;28;20469;-68
2023/06/28 08:22:36;;;;;;;1.53;1.20;;;21.50;99.90;;;;;;5092782;28;20604;-68
2023/06/28 08:25:01;;;;;;;1.93;1.70;;;20.90;99.90;;;;;;5092684;28;20175;-68
2023/06/28 08:27:27;;;;;;;3.97;2.53;;;21.20;99.90;;;;;;5087186;28;20181;-69
2023/06/28 08:29:52;;;;;;;1.67;1.50;;;20.80;99.90;;;;;;5092398;28;20179;-67
2023/06/28 08:32:18;;;;;;;1.90;1.60;;;21.40;99.90;;;;;;5092320;28;20238;-68
2023/06/28 08:34:43;;;;;;;4.17;1.80;;;22.00;99.90;;;;;;5073915;28;20246;-68
2023/06/28 08:37:10;;;;;;;4.33;1.80;;;22.70;99.90;;;;;;5092887;28;20181;-68
2023/06/28 08:39:38;;;;;;;2.33;1.40;;;22.90;99.90;;;;;;5088003;28;20250;-68
2023/06/28 08:42:04;;;;;;;5.50;1.53;;;22.40;99.90;;;;;;5090247;28;20428;-66
2023/06/28 08:44:32;;;;;;;3.40;1.40;;;21.70;99.90;;;;;;5091877;28;20446;-67
2023/06/28 08:46:59;;;;;;;4.37;1.70;;;21.90;99.90;;;;;;5092226;28;20431;-69
2023/06/28 08:49:25;;;;;;;4.77;1.90;;;21.90;99.90;;;;;;5086138;28;20397;-68
2023/06/28 08:51:53;;;;;;;1.87;1.57;;;21.50;99.90;;;;;;5090291;28;20454;-67
2023/06/28 08:54:21;;;;;;;3.17;1.30;;;22.70;99.90;;;;;;5091803;28;20777;-68
2023/06/28 08:56:48;;;;;;;2.93;1.40;;;22.70;99.90;;;;;;5081327;28;20418;-67
2023/06/28 08:59:15;;;;;;;2.70;1.93;;;22.80;99.90;;;;;;5079300;28;20430;-69
2023/06/28 09:01:41;;;;;;;7.80;1.63;;;22.70;99.90;;;;;;5086510;28;20529;-67
2023/06/28 09:04:06;;;;;;;1.50;1.37;;;22.00;99.90;;;;;;5085062;28;20548;-68
2023/06/28 09:06:33;;;;;;;2.20;1.40;;;22.30;99.90;;;;;;5091568;28;20429;-68
2023/06/28 09:09:01;;;;;;;5.33;1.80;;;23.00;99.90;;;;;;5090163;28;20176;-70
2023/06/28 09:11:27;;;;;;;2.90;1.83;;;23.00;99.90;;;;;;5086668;28;20480;-68
2023/06/28 09:13:53;;;;;;;3.47;1.87;;;22.70;99.90;;;;;;5091443;28;20431;-67
2023/06/28 09:16:19;;;;;;;2.37;1.97;;;22.40;99.90;;;;;;5091629;28;20426;-68
2023/06/28 09:18:44;;;;;;;3.60;1.50;;;22.40;99.90;;;;;;5091293;28;20614;-69
2023/06/28 09:21:10;;;;;;;3.93;1.80;;;23.20;99.90;;;;;;5091345;28;20435;-70
2023/06/28 09:23:36;;;;;;;5.13;1.97;;;24.10;99.90;;;;;;5091446;28;20229;-71
2023/06/28 09:26:02;;;;;;;1.40;1.30;;;23.40;99.90;;;;;;5091187;28;20268;-68
2023/06/28 09:28:35;;;;;;;2.40;1.37;;;23.70;99.90;;;;;;5091211;28;20260;-72
2023/06/28 09:31:05;;;;;;;1.83;1.30;;;23.50;99.90;;;;;;5081400;28;20419;-69
2023/06/28 09:33:31;;;;;;;6.87;1.77;;;23.80;99.90;;;;;;5091021;28;20449;-72
2023/06/28 09:35:57;;;;;;;3.30;1.37;;;23.70;99.90;;;;;;5085283;28;20415;-71
2023/06/28 09:38:26;;;;;;;2.53;1.40;;;22.80;99.90;;;;;;5075995;28;20472;-70
2023/06/28 09:41:02;;;;;;;2.50;1.40;;;24.10;99.90;;;;;;5084274;28;20437;-67
2023/06/28 09:43:35;;;;;;;1.50;1.40;;;24.60;99.90;;;;;;5090815;28;20450;-68
2023/06/28 09:46:15;;;;;;;1.97;1.77;;;24.70;99.90;;;;;;5090950;28;20875;-68
2023/06/28 09:48:43;;;;;;;2.93;1.47;;;23.20;99.90;;;;;;5081623;28;20401;-71
2023/06/28 09:51:10;;;;;;;1.50;1.40;;;23.90;99.90;;;;;;5086457;28;20461;-69
2023/06/28 09:53:58;;;;;;;2.17;1.27;;;24.30;99.90;;;;;;5090152;28;20970;-69
2023/06/28 09:56:38;;;;;;;3.20;1.50;;;23.20;99.90;;;;;;5072592;28;20432;-68
2023/06/28 09:59:08;;;;;;;4.60;1.70;;;23.60;99.90;;;;;;5082818;28;20433;-69
2023/06/28 10:01:39;;;;;;;2.43;1.50;;;23.80;99.90;;;;;;5091152;28;20434;-69
2023/06/28 10:04:08;;;;;;;2.87;1.60;;;24.20;99.90;;;;;;5076350;28;20542;-69
2023/06/28 10:06:35;;;;;;;3.20;1.73;;;24.50;99.90;;;;;;5090582;28;20411;-68
2023/06/28 10:09:01;;;;;;;2.67;1.57;;;24.70;99.90;;;;;;5086299;28;20412;-70
2023/06/28 10:11:30;;;;;;;3.53;1.47;;;24.10;99.90;;;;;;5056847;28;20519;-67
2023/06/28 10:13:57;;;;;;;4.13;2.23;;;23.30;99.90;;;;;;5089939;28;20446;-68
2023/06/28 10:16:26;;;;;;;2.67;1.50;;;23.10;99.90;;;;;;5090331;28;20418;-68
2023/06/28 10:18:52;;;;;;;3.13;1.50;;;23.20;99.90;;;;;;5089872;28;20468;-69
2023/06/28 10:21:18;;;;;;;3.80;1.60;;;23.20;99.90;;;;;;5084208;28;20584;-68
2023/06/28 10:23:44;;;;;;;2.00;1.30;;;23.50;99.90;;;;;;5087973;28;20454;-72
2023/06/28 10:26:12;;;;;;;3.17;1.50;;;23.30;99.90;;;;;;5083345;28;20421;-70
2023/06/28 10:28:40;;;;;;;3.20;1.80;;;23.50;99.90;;;;;;5090274;28;20183;-70
2023/06/28 10:31:06;;;;;;;1.63;1.40;;;23.40;99.90;;;;;;5090238;28;20434;-68
2023/06/28 10:33:33;;;;;;;4.13;1.87;;;23.50;99.90;;;;;;5081995;28;20457;-68
2023/06/28 10:36:02;;;;;;;2.07;1.70;;;23.30;99.90;;;;;;5068207;28;20427;-68
2023/06/28 10:38:43;;;;;;;2.90;1.70;;;23.40;99.90;;;;;;5085777;28;20423;-67
2023/06/28 10:41:16;;;;;;;1.47;1.30;;;23.60;99.90;;;;;;5069472;28;20446;-67
2023/06/28 10:43:43;;;;;;;1.73;1.37;;;23.30;99.90;;;;;;5089013;28;20464;-68
2023/06/28 10:46:24;;;;;;;3.93;1.50;;;23.40;99.90;;;;;;5087594;28;20422;-71
2023/06/28 10:48:57;;;;;;;2.40;1.40;;;23.80;99.90;;;;;;5090114;28;20415;-67
2023/06/28 10:51:27;;;;;;;2.47;1.27;;;23.60;99.90;;;;;;5089581;28;20799;-69
2023/06/28 10:54:04;;;;;;;4.80;1.63;;;24.00;99.90;;;;;;5087471;28;20413;-71
2023/06/28 10:56:37;;;;;;;2.60;1.20;;;23.70;99.90;;;;;;5087640;28;20426;-68
2023/06/28 10:59:06;;;;;;;2.23;1.63;;;24.10;99.90;;;;;;5089960;28;20732;-67
2023/06/28 11:01:38;;;;;;;2.70;1.67;;;23.60;99.90;;;;;;5090064;28;20452;-68
2023/06/28 11:04:22;;;;;;;3.47;1.67;;;23.60;99.90;;;;;;5082370;28;20457;-68
2023/06/28 11:06:48;;;;;;;4.63;1.97;;;23.60;99.90;;;;;;5054064;28;20502;-69
2023/06/28 11:09:19;;;;;;;3.93;1.73;;;23.50;99.90;;;;;;5085419;28;20416;-69
2023/06/28 11:11:58;;;;;;;1.87;1.57;;;23.90;99.90;;;;;;5086416;28;20433;-68
2023/06/28 11:14:30;;;;;;;2.60;1.30;;;23.50;99.90;;;;;;5077599;28;20403;-68
2023/06/28 11:17:11;;;;;;;3.03;1.53;;;23.90;99.90;;;;;;5094619;28;20446;-69
2023/06/28 11:19:38;;;;;;;4.20;1.50;;;23.60;99.90;;;;;;5090133;28;20896;-68
2023/06/28 11:22:04;;;;;;;6.13;1.43;;;23.40;99.90;;;;;;5092198;28;20815;-67
2023/06/28 11:24:33;;;;;;;1.70;1.10;;;22.90;99.90;;;;;;5086017;28;20472;-69
2023/06/28 11:27:00;;;;;;;1.70;1.20;;;22.70;99.90;;;;;;5093975;28;20421;-68
2023/06/28 11:29:26;;;;;;;3.27;1.43;;;22.70;99.90;;;;;;5094003;28;20418;-68
2023/06/28 11:31:55;;;;;;;2.00;1.33;;;22.70;99.90;;;;;;5093753;28;20434;-68
2023/06/28 11:34:22;;;;;;;4.30;1.57;;;23.10;99.90;;;;;;5093714;28;20412;-68
2023/06/28 11:36:49;;;;;;;2.43;1.73;;;23.40;99.90;;;;;;5093147;28;20451;-72
2023/06/28 11:39:22;;;;;;;1.83;1.40;;;23.40;99.90;;;;;;5089715;28;20416;-68
2023/06/28 11:41:48;;;;;;;2.40;1.33;;;23.90;99.90;;;;;;5093542;28;20436;-67
2023/06/28 11:44:15;;;;;;;3.53;1.70;;;23.60;99.90;;;;;;5093370;28;20515;-68
2023/06/28 11:46:45;;;;;;;1.57;1.47;;;23.80;99.90;;;;;;5092422;28;20781;-70
2023/06/28 11:49:11;;;;;;;1.37;1.27;;;24.00;99.90;;;;;;5081481;28;20855;-67
2023/06/28 11:51:37;;;;;;;3.47;1.70;;;24.10;99.90;;;;;;5115507;22;20610;-67
2023/06/28 11:54:06;;;;;;;2.17;1.30;;;23.80;99.90;;;;;;5093784;28;20551;-67
2023/06/28 11:56:38;;;;;;;1.40;1.27;;;24.10;99.90;;;;;;5094499;28;20181;-67
2023/06/28 11:59:19;;;;;;;1.60;1.33;;;24.10;99.90;;;;;;5086791;28;20412;-67
2023/06/28 12:01:46;;;;;;;4.50;1.70;;;24.30;99.90;;;;;;5087698;28;20434;-68
2023/06/28 12:04:16;;;;;;;2.97;1.50;;;24.20;99.90;;;;;;5093119;28;20507;-67
2023/06/28 12:06:42;;;;;;;2.63;1.73;;;23.90;99.90;;;;;;5093628;28;20409;-68
2023/06/28 12:09:29;;;;;;;2.27;1.50;;;23.90;99.90;;;;;;5094361;28;20408;-68
2023/06/28 12:12:06;;;;;;;1.57;1.47;;;23.60;99.90;;;;;;5093165;28;20428;-67
2023/06/28 12:14:38;;;;;;;2.27;1.63;;;23.60;99.90;;;;;;5087669;28;20440;-68
2023/06/28 12:17:04;;;;;;;2.33;1.40;;;23.60;99.90;;;;;;5094664;28;20443;-68
2023/06/28 12:19:35;;;;;;;1.97;1.77;;;23.40;99.90;;;;;;5090548;28;20411;-69
2023/06/28 12:22:02;;;;;;;2.70;2.10;;;23.50;99.90;;;;;;5093176;28;20196;-67
2023/06/28 12:24:28;;;;;;;5.30;1.70;;;23.80;99.90;;;;;;5092923;28;20445;-68
2023/06/28 12:26:57;;;;;;;2.83;1.63;;;24.00;99.90;;;;;;5092561;28;20433;-68
2023/06/28 12:29:25;;;;;;;5.47;1.50;;;23.90;99.90;;;;;;5088714;28;20503;-69
2023/06/28 12:31:52;;;;;;;4.80;1.60;;;23.80;99.90;;;;;;5091201;28;20517;-68
2023/06/28 12:34:22;;;;;;;6.30;1.53;;;23.80;99.90;;;;;;5093621;28;20444;-69
2023/06/28 12:36:57;;;;;;;1.90;1.47;;;23.40;99.90;;;;;;5090629;28;20808;-69
2023/06/28 12:39:25;;;;;;;2.73;2.10;;;23.50;99.90;;;;;;5092857;28;20403;-68
2023/06/28 12:42:05;;;;;;;2.00;1.30;;;23.60;99.90;;;;;;5088458;28;20424;-68
2023/06/28 12:44:48;;;;;;;2.57;1.23;;;23.70;99.90;;;;;;5091757;28;20455;-69